Monte Siao, Brazil
Current Conditions -  °F | °C
As of 5:00 PM on Sunday 23 Nov 2014 (Local Time) from SBPC Reporting Station
Scattered Clouds Scattered Clouds  
Wind Chill: 79°   Ceiling: Unl
Heat Index: 81°   Visibility: 6mi
Dew Point: 66°   Wind: 2mph
Humidity: 65%   Direction: 240°WSW
Pressure: 30.03"   Gusts: NA
Location:  22.43°S, 46.57°W
Report Text: SBPC 231900Z 24002KT 9999 SCT018 SCT070 26/19 Q1017
Loading
Personal Weather Stations






























Interactive Weather Map New forecast layout! Learn more

10-Day Weather Forecast

Advertisements
Track Severe Weather on mobile